sensor_id;sensor_type;location;lat;lon;timestamp;P1;durP1;ratioP1;P2;durP2;ratioP2
71646;SDS011;59706;45.634;11.704;2023-05-18T00:01:30;4.50;;;1.00;;
71646;SDS011;59706;45.634;11.704;2023-05-18T00:03:57;6.20;;;1.00;;
71646;SDS011;59706;45.634;11.704;2023-05-18T00:06:25;4.10;;;0.80;;
71646;SDS011;59706;45.634;11.704;2023-05-18T00:08:53;6.80;;;0.70;;
71646;SDS011;59706;45.634;11.704;2023-05-18T00:11:21;5.60;;;0.90;;
71646;SDS011;59706;45.634;11.704;2023-05-18T00:13:48;4.30;;;0.70;;
71646;SDS011;59706;45.634;11.704;2023-05-18T00:16:16;5.40;;;1.00;;
71646;SDS011;59706;45.634;11.704;2023-05-18T00:18:43;6.30;;;1.00;;
71646;SDS011;59706;45.634;11.704;2023-05-18T00:21:11;5.10;;;0.90;;
71646;SDS011;59706;45.634;11.704;2023-05-18T00:23:40;4.10;;;0.70;;
71646;SDS011;59706;45.634;11.704;2023-05-18T00:26:14;4.60;;;1.20;;
71646;SDS011;59706;45.634;11.704;2023-05-18T00:28:41;5.80;;;0.90;;
71646;SDS011;59706;45.634;11.704;2023-05-18T00:31:09;4.30;;;0.90;;
71646;SDS011;59706;45.634;11.704;2023-05-18T00:33:36;6.70;;;1.10;;
71646;SDS011;59706;45.634;11.704;2023-05-18T00:36:03;5.90;;;0.90;;
71646;SDS011;59706;45.634;11.704;2023-05-18T00:38:33;7.00;;;1.30;;
71646;SDS011;59706;45.634;11.704;2023-05-18T00:41:00;5.10;;;0.90;;
71646;SDS011;59706;45.634;11.704;2023-05-18T00:43:28;5.40;;;0.90;;
71646;SDS011;59706;45.634;11.704;2023-05-18T00:45:56;4.10;;;0.80;;
71646;SDS011;59706;45.634;11.704;2023-05-18T00:48:24;5.80;;;1.10;;
71646;SDS011;59706;45.634;11.704;2023-05-18T00:50:52;4.10;;;1.30;;
71646;SDS011;59706;45.634;11.704;2023-05-18T00:53:20;5.20;;;1.10;;
71646;SDS011;59706;45.634;11.704;2023-05-18T00:55:47;5.80;;;1.00;;
71646;SDS011;59706;45.634;11.704;2023-05-18T00:58:15;7.00;;;1.30;;
71646;SDS011;59706;45.634;11.704;2023-05-18T01:00:42;6.10;;;0.90;;
71646;SDS011;59706;45.634;11.704;2023-05-18T01:03:10;5.00;;;1.10;;
71646;SDS011;59706;45.634;11.704;2023-05-18T01:05:40;5.40;;;1.30;;
71646;SDS011;59706;45.634;11.704;2023-05-18T01:08:08;4.70;;;1.10;;
71646;SDS011;59706;45.634;11.704;2023-05-18T01:10:36;5.60;;;1.20;;
71646;SDS011;59706;45.634;11.704;2023-05-18T01:13:17;4.00;;;1.00;;
71646;SDS011;59706;45.634;11.704;2023-05-18T01:15:50;4.20;;;0.90;;
71646;SDS011;59706;45.634;11.704;2023-05-18T01:18:30;4.60;;;1.40;;
71646;SDS011;59706;45.634;11.704;2023-05-18T01:21:17;7.10;;;1.00;;
71646;SDS011;59706;45.634;11.704;2023-05-18T01:26:37;5.10;;;1.00;;
71646;SDS011;59706;45.634;11.704;2023-05-18T01:29:12;6.50;;;1.30;;
71646;SDS011;59706;45.634;11.704;2023-05-18T01:31:39;4.80;;;0.80;;
71646;SDS011;59706;45.634;11.704;2023-05-18T01:34:06;6.50;;;1.30;;
71646;SDS011;59706;45.634;11.704;2023-05-18T01:36:34;6.10;;;1.00;;
71646;SDS011;59706;45.634;11.704;2023-05-18T01:39:01;8.50;;;1.60;;
71646;SDS011;59706;45.634;11.704;2023-05-18T01:41:29;6.60;;;1.60;;
71646;SDS011;59706;45.634;11.704;2023-05-18T01:44:25;6.40;;;1.70;;
71646;SDS011;59706;45.634;11.704;2023-05-18T01:47:14;6.30;;;1.10;;
71646;SDS011;59706;45.634;11.704;2023-05-18T01:50:16;6.10;;;1.20;;
71646;SDS011;59706;45.634;11.704;2023-05-18T01:55:19;4.90;;;1.40;;
71646;SDS011;59706;45.634;11.704;2023-05-18T01:57:48;6.70;;;1.30;;
71646;SDS011;59706;45.634;11.704;2023-05-18T02:00:17;6.00;;;1.40;;
71646;SDS011;59706;45.634;11.704;2023-05-18T02:02:45;6.60;;;1.30;;
71646;SDS011;59706;45.634;11.704;2023-05-18T02:05:13;5.00;;;1.10;;
71646;SDS011;59706;45.634;11.704;2023-05-18T02:07:40;8.00;;;1.40;;
71646;SDS011;59706;45.634;11.704;2023-05-18T02:10:13;5.30;;;1.50;;
71646;SDS011;59706;45.634;11.704;2023-05-18T02:12:40;6.30;;;1.00;;
71646;SDS011;59706;45.634;11.704;2023-05-18T02:15:10;7.00;;;1.30;;
71646;SDS011;59706;45.634;11.704;2023-05-18T02:17:39;6.80;;;1.30;;
71646;SDS011;59706;45.634;11.704;2023-05-18T02:20:08;5.00;;;1.40;;
71646;SDS011;59706;45.634;11.704;2023-05-18T02:22:37;4.10;;;0.90;;
71646;SDS011;59706;45.634;11.704;2023-05-18T02:25:05;4.70;;;1.00;;
71646;SDS011;59706;45.634;11.704;2023-05-18T02:27:34;6.10;;;1.20;;
71646;SDS011;59706;45.634;11.704;2023-05-18T02:30:03;4.90;;;1.10;;
71646;SDS011;59706;45.634;11.704;2023-05-18T02:32:34;6.20;;;1.10;;
71646;SDS011;59706;45.634;11.704;2023-05-18T02:35:05;5.30;;;0.90;;
71646;SDS011;59706;45.634;11.704;2023-05-18T02:37:33;5.10;;;1.10;;
71646;SDS011;59706;45.634;11.704;2023-05-18T02:40:09;4.60;;;1.20;;
71646;SDS011;59706;45.634;11.704;2023-05-18T02:42:53;6.10;;;1.20;;
71646;SDS011;59706;45.634;11.704;2023-05-18T02:45:21;5.60;;;1.30;;
71646;SDS011;59706;45.634;11.704;2023-05-18T02:47:49;4.30;;;1.20;;
71646;SDS011;59706;45.634;11.704;2023-05-18T02:50:17;5.00;;;1.30;;
71646;SDS011;59706;45.634;11.704;2023-05-18T02:52:45;5.10;;;1.30;;
71646;SDS011;59706;45.634;11.704;2023-05-18T02:55:14;5.80;;;1.60;;
71646;SDS011;59706;45.634;11.704;2023-05-18T02:57:42;5.20;;;1.40;;
71646;SDS011;59706;45.634;11.704;2023-05-18T03:00:14;5.20;;;1.30;;
71646;SDS011;59706;45.634;11.704;2023-05-18T03:02:43;4.60;;;1.30;;
71646;SDS011;59706;45.634;11.704;2023-05-18T03:05:13;6.60;;;1.30;;
71646;SDS011;59706;45.634;11.704;2023-05-18T03:07:41;4.10;;;1.10;;
71646;SDS011;59706;45.634;11.704;2023-05-18T03:10:15;7.30;;;1.60;;
71646;SDS011;59706;45.634;11.704;2023-05-18T03:12:43;4.20;;;1.30;;
71646;SDS011;59706;45.634;11.704;2023-05-18T03:15:11;6.00;;;1.50;;
71646;SDS011;59706;45.634;11.704;2023-05-18T03:18:01;5.30;;;1.30;;
71646;SDS011;59706;45.634;11.704;2023-05-18T03:20:29;5.80;;;1.50;;
71646;SDS011;59706;45.634;11.704;2023-05-18T03:22:56;5.30;;;1.80;;
71646;SDS011;59706;45.634;11.704;2023-05-18T03:25:23;5.40;;;1.90;;
71646;SDS011;59706;45.634;11.704;2023-05-18T03:27:51;6.40;;;1.60;;
71646;SDS011;59706;45.634;11.704;2023-05-18T03:30:19;6.30;;;1.30;;
71646;SDS011;59706;45.634;11.704;2023-05-18T03:32:46;6.00;;;1.60;;
71646;SDS011;59706;45.634;11.704;2023-05-18T03:35:15;6.70;;;1.20;;
71646;SDS011;59706;45.634;11.704;2023-05-18T03:37:43;5.60;;;1.30;;
71646;SDS011;59706;45.634;11.704;2023-05-18T03:40:16;6.10;;;1.70;;
71646;SDS011;59706;45.634;11.704;2023-05-18T03:42:44;6.50;;;1.60;;
71646;SDS011;59706;45.634;11.704;2023-05-18T03:45:11;9.00;;;1.60;;
71646;SDS011;59706;45.634;11.704;2023-05-18T03:47:39;5.50;;;1.60;;
71646;SDS011;59706;45.634;11.704;2023-05-18T03:50:08;7.90;;;1.70;;
71646;SDS011;59706;45.634;11.704;2023-05-18T03:52:38;11.00;;;1.60;;
71646;SDS011;59706;45.634;11.704;2023-05-18T03:55:05;6.20;;;1.90;;
71646;SDS011;59706;45.634;11.704;2023-05-18T03:57:35;6.20;;;1.90;;
71646;SDS011;59706;45.634;11.704;2023-05-18T04:00:05;5.90;;;1.80;;
71646;SDS011;59706;45.634;11.704;2023-05-18T04:02:36;6.00;;;1.80;;
71646;SDS011;59706;45.634;11.704;2023-05-18T04:05:05;5.90;;;1.70;;
71646;SDS011;59706;45.634;11.704;2023-05-18T04:07:32;5.70;;;2.00;;
71646;SDS011;59706;45.634;11.704;2023-05-18T04:09:59;6.40;;;1.70;;
71646;SDS011;59706;45.634;11.704;2023-05-18T04:12:26;5.60;;;1.90;;
71646;SDS011;59706;45.634;11.704;2023-05-18T04:14:54;5.70;;;1.80;;
71646;SDS011;59706;45.634;11.704;2023-05-18T04:17:21;4.90;;;1.40;;
71646;SDS011;59706;45.634;11.704;2023-05-18T04:19:49;7.00;;;2.00;;
71646;SDS011;59706;45.634;11.704;2023-05-18T04:22:17;8.00;;;1.80;;
71646;SDS011;59706;45.634;11.704;2023-05-18T04:24:47;8.90;;;2.10;;
71646;SDS011;59706;45.634;11.704;2023-05-18T04:27:15;8.10;;;1.90;;
71646;SDS011;59706;45.634;11.704;2023-05-18T04:29:43;6.10;;;2.20;;
71646;SDS011;59706;45.634;11.704;2023-05-18T04:32:12;6.10;;;1.70;;
71646;SDS011;59706;45.634;11.704;2023-05-18T04:34:39;7.40;;;1.90;;
71646;SDS011;59706;45.634;11.704;2023-05-18T04:37:07;6.00;;;2.10;;
71646;SDS011;59706;45.634;11.704;2023-05-18T04:39:35;8.60;;;2.30;;
71646;SDS011;59706;45.634;11.704;2023-05-18T04:42:04;6.40;;;2.30;;
71646;SDS011;59706;45.634;11.704;2023-05-18T04:44:32;6.30;;;2.30;;
71646;SDS011;59706;45.634;11.704;2023-05-18T04:47:00;8.00;;;2.30;;
71646;SDS011;59706;45.634;11.704;2023-05-18T04:49:29;7.80;;;2.90;;
71646;SDS011;59706;45.634;11.704;2023-05-18T04:51:57;8.70;;;3.20;;
71646;SDS011;59706;45.634;11.704;2023-05-18T04:54:26;8.70;;;2.70;;
71646;SDS011;59706;45.634;11.704;2023-05-18T04:56:56;7.20;;;2.10;;
71646;SDS011;59706;45.634;11.704;2023-05-18T04:59:23;6.20;;;1.90;;
71646;SDS011;59706;45.634;11.704;2023-05-18T05:01:54;6.40;;;2.50;;
71646;SDS011;59706;45.634;11.704;2023-05-18T05:04:21;8.30;;;2.40;;
71646;SDS011;59706;45.634;11.704;2023-05-18T05:06:49;7.80;;;2.20;;
71646;SDS011;59706;45.634;11.704;2023-05-18T05:09:16;7.40;;;2.20;;
71646;SDS011;59706;45.634;11.704;2023-05-18T05:11:44;7.20;;;2.30;;
71646;SDS011;59706;45.634;11.704;2023-05-18T05:14:12;7.10;;;2.40;;
71646;SDS011;59706;45.634;11.704;2023-05-18T05:16:40;7.60;;;2.20;;
71646;SDS011;59706;45.634;11.704;2023-05-18T05:19:08;7.00;;;2.00;;
71646;SDS011;59706;45.634;11.704;2023-05-18T05:21:35;6.50;;;1.90;;
71646;SDS011;59706;45.634;11.704;2023-05-18T05:24:04;8.00;;;2.00;;
71646;SDS011;59706;45.634;11.704;2023-05-18T05:26:32;6.20;;;2.70;;
71646;SDS011;59706;45.634;11.704;2023-05-18T05:29:00;7.10;;;2.20;;
71646;SDS011;59706;45.634;11.704;2023-05-18T05:31:27;7.80;;;2.20;;
71646;SDS011;59706;45.634;11.704;2023-05-18T05:33:54;6.80;;;2.40;;
71646;SDS011;59706;45.634;11.704;2023-05-18T05:36:21;5.80;;;2.40;;
71646;SDS011;59706;45.634;11.704;2023-05-18T05:38:49;6.80;;;2.40;;
71646;SDS011;59706;45.634;11.704;2023-05-18T05:41:16;7.80;;;2.60;;
71646;SDS011;59706;45.634;11.704;2023-05-18T05:43:44;9.30;;;2.40;;
71646;SDS011;59706;45.634;11.704;2023-05-18T05:46:12;8.30;;;2.60;;
71646;SDS011;59706;45.634;11.704;2023-05-18T05:48:39;6.80;;;2.40;;
71646;SDS011;59706;45.634;11.704;2023-05-18T05:51:07;6.60;;;2.40;;
71646;SDS011;59706;45.634;11.704;2023-05-18T05:53:34;9.30;;;2.80;;
71646;SDS011;59706;45.634;11.704;2023-05-18T05:56:04;7.20;;;2.30;;
71646;SDS011;59706;45.634;11.704;2023-05-18T05:58:34;9.70;;;2.80;;
71646;SDS011;59706;45.634;11.704;2023-05-18T06:01:01;6.90;;;2.10;;
71646;SDS011;59706;45.634;11.704;2023-05-18T06:03:29;7.20;;;2.40;;
71646;SDS011;59706;45.634;11.704;2023-05-18T06:05:57;7.10;;;2.30;;
71646;SDS011;59706;45.634;11.704;2023-05-18T06:08:25;10.80;;;2.90;;
71646;SDS011;59706;45.634;11.704;2023-05-18T06:10:53;10.00;;;3.10;;
71646;SDS011;59706;45.634;11.704;2023-05-18T06:13:20;10.10;;;3.30;;
71646;SDS011;59706;45.634;11.704;2023-05-18T06:15:48;9.90;;;3.80;;
71646;SDS011;59706;45.634;11.704;2023-05-18T06:18:16;9.60;;;2.80;;
71646;SDS011;59706;45.634;11.704;2023-05-18T06:20:44;7.90;;;2.30;;
71646;SDS011;59706;45.634;11.704;2023-05-18T06:23:12;7.00;;;2.40;;
71646;SDS011;59706;45.634;11.704;2023-05-18T06:25:39;8.50;;;2.50;;
71646;SDS011;59706;45.634;11.704;2023-05-18T06:28:06;9.80;;;2.60;;
71646;SDS011;59706;45.634;11.704;2023-05-18T06:30:35;14.10;;;3.60;;
71646;SDS011;59706;45.634;11.704;2023-05-18T06:33:03;12.00;;;3.00;;
71646;SDS011;59706;45.634;11.704;2023-05-18T06:35:30;6.30;;;1.90;;
71646;SDS011;59706;45.634;11.704;2023-05-18T06:37:58;7.70;;;2.50;;
71646;SDS011;59706;45.634;11.704;2023-05-18T06:40:26;7.60;;;2.00;;
71646;SDS011;59706;45.634;11.704;2023-05-18T06:42:54;6.60;;;2.10;;
71646;SDS011;59706;45.634;11.704;2023-05-18T06:45:21;6.50;;;1.80;;
71646;SDS011;59706;45.634;11.704;2023-05-18T06:47:49;5.90;;;1.60;;
71646;SDS011;59706;45.634;11.704;2023-05-18T06:50:17;6.60;;;1.70;;
71646;SDS011;59706;45.634;11.704;2023-05-18T06:52:44;5.80;;;1.80;;
71646;SDS011;59706;45.634;11.704;2023-05-18T06:55:12;5.60;;;1.80;;
71646;SDS011;59706;45.634;11.704;2023-05-18T06:57:39;5.60;;;1.90;;
71646;SDS011;59706;45.634;11.704;2023-05-18T07:00:07;8.30;;;1.90;;
71646;SDS011;59706;45.634;11.704;2023-05-18T07:02:37;8.20;;;2.00;;
71646;SDS011;59706;45.634;11.704;2023-05-18T07:05:06;5.80;;;1.90;;
71646;SDS011;59706;45.634;11.704;2023-05-18T07:07:35;5.20;;;1.60;;
71646;SDS011;59706;45.634;11.704;2023-05-18T07:10:02;6.10;;;1.40;;
71646;SDS011;59706;45.634;11.704;2023-05-18T07:12:31;4.20;;;1.10;;
71646;SDS011;59706;45.634;11.704;2023-05-18T07:14:57;6.00;;;1.60;;
71646;SDS011;59706;45.634;11.704;2023-05-18T07:17:24;5.80;;;1.80;;
71646;SDS011;59706;45.634;11.704;2023-05-18T07:19:51;4.60;;;1.40;;
71646;SDS011;59706;45.634;11.704;2023-05-18T07:22:19;5.20;;;1.80;;
71646;SDS011;59706;45.634;11.704;2023-05-18T07:24:46;4.50;;;1.30;;
71646;SDS011;59706;45.634;11.704;2023-05-18T07:27:14;6.50;;;1.80;;
71646;SDS011;59706;45.634;11.704;2023-05-18T07:29:42;6.40;;;1.70;;
71646;SDS011;59706;45.634;11.704;2023-05-18T07:32:09;5.50;;;1.70;;
71646;SDS011;59706;45.634;11.704;2023-05-18T07:34:36;5.20;;;1.40;;
71646;SDS011;59706;45.634;11.704;2023-05-18T07:37:04;6.00;;;1.70;;
71646;SDS011;59706;45.634;11.704;2023-05-18T07:39:31;6.90;;;1.40;;
71646;SDS011;59706;45.634;11.704;2023-05-18T07:41:59;5.30;;;1.50;;
71646;SDS011;59706;45.634;11.704;2023-05-18T07:44:27;4.70;;;1.30;;
71646;SDS011;59706;45.634;11.704;2023-05-18T07:46:54;5.10;;;1.60;;
71646;SDS011;59706;45.634;11.704;2023-05-18T07:49:21;4.40;;;1.20;;
71646;SDS011;59706;45.634;11.704;2023-05-18T07:51:49;6.00;;;1.50;;
71646;SDS011;59706;45.634;11.704;2023-05-18T07:54:16;5.60;;;2.00;;
71646;SDS011;59706;45.634;11.704;2023-05-18T07:56:44;5.40;;;1.90;;
71646;SDS011;59706;45.634;11.704;2023-05-18T07:59:11;6.80;;;1.70;;
71646;SDS011;59706;45.634;11.704;2023-05-18T08:01:38;7.30;;;1.50;;
71646;SDS011;59706;45.634;11.704;2023-05-18T08:04:06;6.40;;;1.50;;
71646;SDS011;59706;45.634;11.704;2023-05-18T08:06:33;7.30;;;1.80;;
71646;SDS011;59706;45.634;11.704;2023-05-18T08:09:00;5.50;;;1.50;;
71646;SDS011;59706;45.634;11.704;2023-05-18T08:11:28;4.80;;;1.30;;
71646;SDS011;59706;45.634;11.704;2023-05-18T08:13:55;5.00;;;1.20;;
71646;SDS011;59706;45.634;11.704;2023-05-18T08:16:23;5.20;;;1.40;;
71646;SDS011;59706;45.634;11.704;2023-05-18T08:18:50;6.50;;;1.90;;
71646;SDS011;59706;45.634;11.704;2023-05-18T08:21:18;8.50;;;2.10;;
71646;SDS011;59706;45.634;11.704;2023-05-18T08:23:45;5.00;;;1.60;;
71646;SDS011;59706;45.634;11.704;2023-05-18T08:26:12;5.20;;;1.80;;
71646;SDS011;59706;45.634;11.704;2023-05-18T08:28:40;7.90;;;1.80;;
71646;SDS011;59706;45.634;11.704;2023-05-18T08:31:07;5.60;;;2.10;;
71646;SDS011;59706;45.634;11.704;2023-05-18T08:33:34;5.50;;;1.80;;
71646;SDS011;59706;45.634;11.704;2023-05-18T08:36:01;7.40;;;1.90;;
71646;SDS011;59706;45.634;11.704;2023-05-18T08:38:29;6.20;;;1.40;;
71646;SDS011;59706;45.634;11.704;2023-05-18T08:44:14;6.30;;;2.00;;
71646;SDS011;59706;45.634;11.704;2023-05-18T08:46:44;5.70;;;2.20;;
71646;SDS011;59706;45.634;11.704;2023-05-18T08:49:17;5.80;;;1.90;;
71646;SDS011;59706;45.634;11.704;2023-05-18T08:51:46;5.50;;;2.00;;
71646;SDS011;59706;45.634;11.704;2023-05-18T08:54:20;6.40;;;2.00;;
71646;SDS011;59706;45.634;11.704;2023-05-18T08:56:48;6.10;;;1.90;;
71646;SDS011;59706;45.634;11.704;2023-05-18T08:59:18;6.50;;;2.20;;
71646;SDS011;59706;45.634;11.704;2023-05-18T09:01:50;6.40;;;2.40;;
71646;SDS011;59706;45.634;11.704;2023-05-18T09:04:20;7.70;;;1.90;;
71646;SDS011;59706;45.634;11.704;2023-05-18T09:07:10;6.40;;;2.00;;
71646;SDS011;59706;45.634;11.704;2023-05-18T09:09:38;6.70;;;2.00;;
71646;SDS011;59706;45.634;11.704;2023-05-18T09:12:06;5.30;;;1.90;;
71646;SDS011;59706;45.634;11.704;2023-05-18T09:14:34;10.30;;;2.10;;
71646;SDS011;59706;45.634;11.704;2023-05-18T09:17:01;5.80;;;2.00;;
71646;SDS011;59706;45.634;11.704;2023-05-18T09:19:28;8.00;;;1.60;;
71646;SDS011;59706;45.634;11.704;2023-05-18T09:21:56;6.30;;;1.90;;
71646;SDS011;59706;45.634;11.704;2023-05-18T09:24:23;5.30;;;1.70;;
71646;SDS011;59706;45.634;11.704;2023-05-18T09:26:50;5.20;;;1.90;;
71646;SDS011;59706;45.634;11.704;2023-05-18T09:29:20;6.50;;;2.50;;
71646;SDS011;59706;45.634;11.704;2023-05-18T09:31:49;6.90;;;2.00;;
71646;SDS011;59706;45.634;11.704;2023-05-18T09:34:16;7.00;;;2.10;;
71646;SDS011;59706;45.634;11.704;2023-05-18T09:36:49;6.10;;;2.20;;
71646;SDS011;59706;45.634;11.704;2023-05-18T09:39:21;7.80;;;1.80;;
71646;SDS011;59706;45.634;11.704;2023-05-18T09:41:54;5.10;;;1.60;;
71646;SDS011;59706;45.634;11.704;2023-05-18T09:44:30;5.40;;;1.80;;
71646;SDS011;59706;45.634;11.704;2023-05-18T09:46:58;6.20;;;2.00;;
71646;SDS011;59706;45.634;11.704;2023-05-18T09:49:28;6.50;;;1.60;;
71646;SDS011;59706;45.634;11.704;2023-05-18T09:51:59;4.80;;;1.60;;
71646;SDS011;59706;45.634;11.704;2023-05-18T09:54:26;4.40;;;1.20;;
71646;SDS011;59706;45.634;11.704;2023-05-18T09:56:53;4.20;;;1.40;;
71646;SDS011;59706;45.634;11.704;2023-05-18T09:59:22;4.00;;;1.10;;
71646;SDS011;59706;45.634;11.704;2023-05-18T10:01:56;6.90;;;2.10;;
71646;SDS011;59706;45.634;11.704;2023-05-18T10:04:38;6.30;;;1.90;;
71646;SDS011;59706;45.634;11.704;2023-05-18T10:07:14;5.40;;;1.90;;
71646;SDS011;59706;45.634;11.704;2023-05-18T10:09:42;6.50;;;2.00;;
71646;SDS011;59706;45.634;11.704;2023-05-18T10:12:14;6.10;;;2.10;;
71646;SDS011;59706;45.634;11.704;2023-05-18T10:14:42;5.60;;;2.10;;
71646;SDS011;59706;45.634;11.704;2023-05-18T10:17:14;6.40;;;2.20;;
71646;SDS011;59706;45.634;11.704;2023-05-18T10:19:42;7.20;;;2.40;;
71646;SDS011;59706;45.634;11.704;2023-05-18T10:22:11;5.70;;;1.80;;
71646;SDS011;59706;45.634;11.704;2023-05-18T10:24:42;5.40;;;1.90;;
71646;SDS011;59706;45.634;11.704;2023-05-18T10:27:13;8.00;;;3.80;;
71646;SDS011;59706;45.634;11.704;2023-05-18T10:29:40;5.40;;;1.80;;
71646;SDS011;59706;45.634;11.704;2023-05-18T10:32:11;5.50;;;1.60;;
71646;SDS011;59706;45.634;11.704;2023-05-18T10:34:39;5.30;;;1.80;;
71646;SDS011;59706;45.634;11.704;2023-05-18T10:37:09;5.40;;;1.40;;
71646;SDS011;59706;45.634;11.704;2023-05-18T10:39:37;4.20;;;1.00;;
71646;SDS011;59706;45.634;11.704;2023-05-18T10:42:07;4.00;;;1.00;;
71646;SDS011;59706;45.634;11.704;2023-05-18T10:44:35;3.40;;;0.70;;
71646;SDS011;59706;45.634;11.704;2023-05-18T10:47:04;4.70;;;1.30;;
71646;SDS011;59706;45.634;11.704;2023-05-18T10:49:36;7.00;;;1.50;;
71646;SDS011;59706;45.634;11.704;2023-05-18T10:52:04;5.30;;;1.70;;
71646;SDS011;59706;45.634;11.704;2023-05-18T10:54:32;5.20;;;1.60;;
71646;SDS011;59706;45.634;11.704;2023-05-18T10:57:00;5.40;;;1.50;;
71646;SDS011;59706;45.634;11.704;2023-05-18T10:59:27;5.90;;;1.70;;
71646;SDS011;59706;45.634;11.704;2023-05-18T11:01:54;3.80;;;1.10;;
71646;SDS011;59706;45.634;11.704;2023-05-18T11:04:24;5.40;;;1.20;;
71646;SDS011;59706;45.634;11.704;2023-05-18T11:07:21;4.90;;;1.30;;
71646;SDS011;59706;45.634;11.704;2023-05-18T11:09:49;4.90;;;1.40;;
71646;SDS011;59706;45.634;11.704;2023-05-18T11:12:16;5.30;;;1.50;;
71646;SDS011;59706;45.634;11.704;2023-05-18T11:14:49;3.80;;;0.80;;
71646;SDS011;59706;45.634;11.704;2023-05-18T11:22:51;5.30;;;1.30;;
71646;SDS011;59706;45.634;11.704;2023-05-18T11:27:57;4.30;;;1.20;;
71646;SDS011;59706;45.634;11.704;2023-05-18T11:33:14;4.00;;;1.20;;
71646;SDS011;59706;45.634;11.704;2023-05-18T11:36:09;3.70;;;0.90;;
71646;SDS011;59706;45.634;11.704;2023-05-18T11:39:04;4.20;;;1.20;;
71646;SDS011;59706;45.634;11.704;2023-05-18T11:41:34;5.40;;;1.50;;
71646;SDS011;59706;45.634;11.704;2023-05-18T11:47:03;3.40;;;0.70;;
71646;SDS011;59706;45.634;11.704;2023-05-18T11:50:01;3.10;;;0.70;;
71646;SDS011;59706;45.634;11.704;2023-05-18T11:52:29;4.70;;;1.30;;
71646;SDS011;59706;45.634;11.704;2023-05-18T11:54:57;3.50;;;1.30;;
71646;SDS011;59706;45.634;11.704;2023-05-18T11:57:37;4.30;;;1.10;;
71646;SDS011;59706;45.634;11.704;2023-05-18T12:00:09;4.00;;;1.30;;
71646;SDS011;59706;45.634;11.704;2023-05-18T12:02:42;4.10;;;0.90;;
71646;SDS011;59706;45.634;11.704;2023-05-18T12:05:31;4.90;;;1.20;;
71646;SDS011;59706;45.634;11.704;2023-05-18T12:08:00;4.00;;;1.10;;
71646;SDS011;59706;45.634;11.704;2023-05-18T12:10:27;3.90;;;1.00;;
71646;SDS011;59706;45.634;11.704;2023-05-18T12:12:53;3.50;;;0.80;;
71646;SDS011;59706;45.634;11.704;2023-05-18T12:15:22;4.40;;;1.30;;
71646;SDS011;59706;45.634;11.704;2023-05-18T12:17:49;3.70;;;0.80;;
71646;SDS011;59706;45.634;11.704;2023-05-18T12:20:21;4.50;;;1.10;;
71646;SDS011;59706;45.634;11.704;2023-05-18T12:22:54;4.40;;;1.30;;
71646;SDS011;59706;45.634;11.704;2023-05-18T12:25:22;5.30;;;1.20;;
71646;SDS011;59706;45.634;11.704;2023-05-18T12:27:52;3.60;;;1.10;;
71646;SDS011;59706;45.634;11.704;2023-05-18T12:30:26;5.10;;;1.20;;
71646;SDS011;59706;45.634;11.704;2023-05-18T12:32:59;4.00;;;1.00;;
71646;SDS011;59706;45.634;11.704;2023-05-18T12:35:28;3.90;;;1.00;;
71646;SDS011;59706;45.634;11.704;2023-05-18T12:37:56;4.10;;;1.10;;
71646;SDS011;59706;45.634;11.704;2023-05-18T12:40:25;4.30;;;1.00;;
71646;SDS011;59706;45.634;11.704;2023-05-18T12:42:54;3.30;;;1.10;;
71646;SDS011;59706;45.634;11.704;2023-05-18T12:45:26;4.40;;;1.40;;
71646;SDS011;59706;45.634;11.704;2023-05-18T12:48:03;3.60;;;1.00;;
71646;SDS011;59706;45.634;11.704;2023-05-18T12:50:33;4.10;;;1.20;;
71646;SDS011;59706;45.634;11.704;2023-05-18T12:53:01;5.10;;;1.00;;
71646;SDS011;59706;45.634;11.704;2023-05-18T12:55:29;3.90;;;0.90;;
71646;SDS011;59706;45.634;11.704;2023-05-18T12:58:05;3.70;;;1.00;;
71646;SDS011;59706;45.634;11.704;2023-05-18T13:00:44;3.20;;;1.00;;
71646;SDS011;59706;45.634;11.704;2023-05-18T13:03:15;4.20;;;1.10;;
71646;SDS011;59706;45.634;11.704;2023-05-18T13:05:44;3.80;;;1.00;;
71646;SDS011;59706;45.634;11.704;2023-05-18T13:08:31;4.30;;;1.40;;
71646;SDS011;59706;45.634;11.704;2023-05-18T13:11:06;3.70;;;1.10;;
71646;SDS011;59706;45.634;11.704;2023-05-18T13:13:34;4.30;;;1.10;;
71646;SDS011;59706;45.634;11.704;2023-05-18T13:16:01;4.60;;;1.50;;
71646;SDS011;59706;45.634;11.704;2023-05-18T13:18:29;3.90;;;1.00;;
71646;SDS011;59706;45.634;11.704;2023-05-18T13:20:56;4.50;;;1.20;;
71646;SDS011;59706;45.634;11.704;2023-05-18T13:23:26;4.20;;;1.30;;
71646;SDS011;59706;45.634;11.704;2023-05-18T13:25:54;5.60;;;1.30;;
71646;SDS011;59706;45.634;11.704;2023-05-18T13:28:25;6.00;;;1.30;;
71646;SDS011;59706;45.634;11.704;2023-05-18T13:30:51;5.90;;;1.20;;
71646;SDS011;59706;45.634;11.704;2023-05-18T13:33:19;4.70;;;1.10;;
71646;SDS011;59706;45.634;11.704;2023-05-18T13:35:46;4.30;;;1.30;;
71646;SDS011;59706;45.634;11.704;2023-05-18T13:38:14;5.10;;;1.10;;
71646;SDS011;59706;45.634;11.704;2023-05-18T13:40:41;5.40;;;1.20;;
71646;SDS011;59706;45.634;11.704;2023-05-18T13:43:09;4.10;;;1.10;;
71646;SDS011;59706;45.634;11.704;2023-05-18T13:45:36;4.60;;;1.10;;
71646;SDS011;59706;45.634;11.704;2023-05-18T13:48:04;3.70;;;1.20;;
71646;SDS011;59706;45.634;11.704;2023-05-18T13:50:33;3.80;;;1.00;;
71646;SDS011;59706;45.634;11.704;2023-05-18T13:53:00;4.30;;;1.10;;
71646;SDS011;59706;45.634;11.704;2023-05-18T13:55:27;5.40;;;1.70;;
71646;SDS011;59706;45.634;11.704;2023-05-18T13:57:55;4.70;;;1.30;;
71646;SDS011;59706;45.634;11.704;2023-05-18T14:00:22;4.60;;;1.40;;
71646;SDS011;59706;45.634;11.704;2023-05-18T14:02:49;6.80;;;1.20;;
71646;SDS011;59706;45.634;11.704;2023-05-18T14:05:17;7.10;;;1.20;;
71646;SDS011;59706;45.634;11.704;2023-05-18T14:07:45;5.80;;;1.20;;
71646;SDS011;59706;45.634;11.704;2023-05-18T14:10:11;4.80;;;1.20;;
71646;SDS011;59706;45.634;11.704;2023-05-18T14:12:39;4.80;;;1.40;;
71646;SDS011;59706;45.634;11.704;2023-05-18T14:15:11;6.40;;;1.20;;
71646;SDS011;59706;45.634;11.704;2023-05-18T14:17:39;4.20;;;1.30;;
71646;SDS011;59706;45.634;11.704;2023-05-18T14:20:08;4.20;;;1.20;;
71646;SDS011;59706;45.634;11.704;2023-05-18T14:22:36;4.60;;;1.30;;
71646;SDS011;59706;45.634;11.704;2023-05-18T14:25:04;4.10;;;1.20;;
71646;SDS011;59706;45.634;11.704;2023-05-18T14:27:33;4.40;;;1.00;;
71646;SDS011;59706;45.634;11.704;2023-05-18T14:30:00;4.10;;;1.10;;
71646;SDS011;59706;45.634;11.704;2023-05-18T14:32:27;4.40;;;1.40;;
71646;SDS011;59706;45.634;11.704;2023-05-18T14:34:55;5.30;;;1.40;;
71646;SDS011;59706;45.634;11.704;2023-05-18T14:37:23;5.30;;;1.30;;
71646;SDS011;59706;45.634;11.704;2023-05-18T14:39:50;4.70;;;1.60;;
71646;SDS011;59706;45.634;11.704;2023-05-18T14:42:20;4.10;;;1.10;;
71646;SDS011;59706;45.634;11.704;2023-05-18T14:44:48;4.00;;;1.20;;
71646;SDS011;59706;45.634;11.704;2023-05-18T14:47:15;3.60;;;1.10;;
71646;SDS011;59706;45.634;11.704;2023-05-18T14:49:42;4.90;;;1.30;;
71646;SDS011;59706;45.634;11.704;2023-05-18T14:52:09;3.90;;;1.10;;
71646;SDS011;59706;45.634;11.704;2023-05-18T14:54:36;4.20;;;1.30;;
71646;SDS011;59706;45.634;11.704;2023-05-18T14:57:04;5.60;;;1.30;;
71646;SDS011;59706;45.634;11.704;2023-05-18T14:59:32;5.40;;;1.40;;
71646;SDS011;59706;45.634;11.704;2023-05-18T15:01:59;4.90;;;1.70;;
71646;SDS011;59706;45.634;11.704;2023-05-18T15:04:26;5.90;;;1.60;;
71646;SDS011;59706;45.634;11.704;2023-05-18T15:06:54;4.50;;;1.20;;
71646;SDS011;59706;45.634;11.704;2023-05-18T15:09:21;4.80;;;1.60;;